KASE/ASE METAR and TAF weather

Enter ICAO airport designator
Station Type Date Time Source
KASE METAR 2019/04/18 20:53 UTC NOAA

KASE 182053Z 32009G22KT 270V360 10SM BKN070 OVC090 12/M06 A3028 RMK AO2 SLP188 T01221061 58010


Station Type Date Time Source
KASE Decoded METAR 2019/04/18 20:53 UTC NOAA

ASPEN-PITKIN COUNTY AIRPORT, CO, United States (KASE) 39-14N 106-52W 2354M
Apr 18, 2019 - 04:53 PM EDT / 2019.04.18 2053 UTC
Wind: from the NW (320 degrees) at 10 MPH (9 KT) gusting to 25 MPH (22 KT) (direction variable):0
Visibility: 10 mile(s):0
Sky conditions: overcast
Temperature: 54.0 F (12.2 C)
Dew Point: 21.0 F (-6.1 C)
Relative Humidity: 27%
Pressure (altimeter): 30.28 in. Hg (1025 hPa)
Pressure tendency: 0.03 inches (1.0 hPa) lower than three hours ago
ob: KASE 182053Z 32009G22KT 270V360 10SM BKN070 OVC090 12/M06 A3028 RMK AO2 SLP188 T01221061 58010
cycle: 21

Station Type Date Time Source
KASE TAF 2019/04/18 18:33 UTC NOAA

TAF
AMD KASE 181731Z 1818/1918 35010KT P6SM SCT050
TEMPO 1818/1821 34010G18KT BKN050
FM182100 33012G20KT P6SM SCT050
FM190300 23006KT P6SM SKC
FM191400 00000KT P6SM SKC

Example: see airport list